SBOSBO OWD / KOWD
Speedbird OnlineSpeedbird Online OWD / KOWD

Norwood Memorial Airport
23:36 6.2°C

Location Norwood, United States
Latitude: 42.1904983521
Longitude: -71.1728973389
Local Time 23:36 on 23 Apr 2024
UTC -4 hours (America/New_York)
Currency £1 equals USD 1.24
METAR KOWD 240253Z AUTO 17006KT 10SM CLR 07/00 A3001 RMK AO2 SLP163 T00670000 58007
TAF
Weather As Of 23 Apr 2024 23:36
Description Clear sky
Wind 19 km/h from South (199°)
Cloud Cover 0%
Precipitation Rain: none, Snow: none
Sunrise 05:50
Sunset 19:34
Web Airport Website | Wikipedia
Codes IATA: OWD
ICAO: KOWD
Altitude 15 Meter / 49 Feet
Distance 5,300 KM / 3,293 Miles
from London.
Runways
RunwayLength (m)Surface
101218Asphalt
171222Asphalt
281218Asphalt
351222Asphalt
Radio
TypeDescriptionFrequency
APPBOSTON APP124.1
ATISATIS119.95
CLDCLNC DEL121.8
CTAFCTAF126
DEPBOSTON DEP124.1
GNDGND121.8
TWRTWR126
Live ATC



Support Speedbird Online

© 2017-2024 Speedbird Online